sensor_id;sensor_type;location;lat;lon;timestamp;P1;durP1;ratioP1;P2;durP2;ratioP2
13311;SDS011;34033;48.672;9.376;2023-03-16T00:01:37;6.53;;;4.20;;
13311;SDS011;34033;48.672;9.376;2023-03-16T00:04:02;4.50;;;3.70;;
13311;SDS011;34033;48.672;9.376;2023-03-16T00:06:27;5.97;;;4.13;;
13311;SDS011;34033;48.672;9.376;2023-03-16T00:08:53;5.57;;;3.90;;
13311;SDS011;34033;48.672;9.376;2023-03-16T00:11:23;5.90;;;3.80;;
13311;SDS011;34033;48.672;9.376;2023-03-16T00:13:51;5.43;;;3.97;;
13311;SDS011;34033;48.672;9.376;2023-03-16T00:16:17;5.90;;;4.30;;
13311;SDS011;34033;48.672;9.376;2023-03-16T00:18:42;6.87;;;3.47;;
13311;SDS011;34033;48.672;9.376;2023-03-16T00:21:08;4.43;;;3.67;;
13311;SDS011;34033;48.672;9.376;2023-03-16T00:23:33;6.13;;;3.90;;
13311;SDS011;34033;48.672;9.376;2023-03-16T00:26:00;6.20;;;3.90;;
13311;SDS011;34033;48.672;9.376;2023-03-16T00:28:28;6.53;;;3.83;;
13311;SDS011;34033;48.672;9.376;2023-03-16T00:31:00;3.97;;;3.57;;
13311;SDS011;34033;48.672;9.376;2023-03-16T00:33:26;4.77;;;3.37;;
13311;SDS011;34033;48.672;9.376;2023-03-16T00:35:51;4.10;;;3.20;;
13311;SDS011;34033;48.672;9.376;2023-03-16T00:38:26;5.87;;;3.10;;
13311;SDS011;34033;48.672;9.376;2023-03-16T00:40:53;3.63;;;3.27;;
13311;SDS011;34033;48.672;9.376;2023-03-16T00:43:18;3.53;;;3.20;;
13311;SDS011;34033;48.672;9.376;2023-03-16T00:45:44;6.57;;;3.60;;
13311;SDS011;34033;48.672;9.376;2023-03-16T00:48:09;4.93;;;3.47;;
13311;SDS011;34033;48.672;9.376;2023-03-16T00:50:35;3.37;;;3.07;;
13311;SDS011;34033;48.672;9.376;2023-03-16T00:53:01;3.73;;;3.43;;
13311;SDS011;34033;48.672;9.376;2023-03-16T00:55:26;6.00;;;3.57;;
13311;SDS011;34033;48.672;9.376;2023-03-16T00:57:52;4.33;;;3.30;;
13311;SDS011;34033;48.672;9.376;2023-03-16T01:00:18;9.33;;;3.83;;
13311;SDS011;34033;48.672;9.376;2023-03-16T01:02:45;4.50;;;3.60;;
13311;SDS011;34033;48.672;9.376;2023-03-16T01:05:12;5.80;;;3.80;;
13311;SDS011;34033;48.672;9.376;2023-03-16T01:07:39;5.17;;;3.80;;
13311;SDS011;34033;48.672;9.376;2023-03-16T01:10:05;4.93;;;3.47;;
13311;SDS011;34033;48.672;9.376;2023-03-16T01:12:32;7.13;;;4.13;;
13311;SDS011;34033;48.672;9.376;2023-03-16T01:14:58;4.47;;;3.53;;
13311;SDS011;34033;48.672;9.376;2023-03-16T01:17:23;4.57;;;3.50;;
13311;SDS011;34033;48.672;9.376;2023-03-16T01:19:48;4.67;;;3.80;;
13311;SDS011;34033;48.672;9.376;2023-03-16T01:22:14;4.33;;;3.23;;
13311;SDS011;34033;48.672;9.376;2023-03-16T01:24:40;3.40;;;3.00;;
13311;SDS011;34033;48.672;9.376;2023-03-16T01:27:06;3.93;;;3.17;;
13311;SDS011;34033;48.672;9.376;2023-03-16T01:29:32;3.97;;;3.17;;
13311;SDS011;34033;48.672;9.376;2023-03-16T01:31:58;3.43;;;3.13;;
13311;SDS011;34033;48.672;9.376;2023-03-16T01:34:25;2.80;;;2.60;;
13311;SDS011;34033;48.672;9.376;2023-03-16T01:36:50;4.20;;;2.67;;
13311;SDS011;34033;48.672;9.376;2023-03-16T01:39:16;3.23;;;2.93;;
13311;SDS011;34033;48.672;9.376;2023-03-16T01:41:42;4.43;;;3.13;;
13311;SDS011;34033;48.672;9.376;2023-03-16T01:44:12;4.20;;;2.97;;
13311;SDS011;34033;48.672;9.376;2023-03-16T01:46:38;3.70;;;2.87;;
13311;SDS011;34033;48.672;9.376;2023-03-16T01:49:07;3.47;;;2.90;;
13311;SDS011;34033;48.672;9.376;2023-03-16T01:52:11;2.57;;;2.37;;
13311;SDS011;34033;48.672;9.376;2023-03-16T01:54:43;4.93;;;3.10;;
13311;SDS011;34033;48.672;9.376;2023-03-16T01:57:17;3.33;;;2.90;;
13311;SDS011;34033;48.672;9.376;2023-03-16T02:02:24;3.97;;;2.77;;
13311;SDS011;34033;48.672;9.376;2023-03-16T02:07:39;5.40;;;3.27;;
13311;SDS011;34033;48.672;9.376;2023-03-16T02:10:08;5.63;;;3.63;;
13311;SDS011;34033;48.672;9.376;2023-03-16T02:12:34;4.37;;;3.00;;
13311;SDS011;34033;48.672;9.376;2023-03-16T02:15:00;3.53;;;2.80;;
13311;SDS011;34033;48.672;9.376;2023-03-16T02:17:26;5.03;;;3.00;;
13311;SDS011;34033;48.672;9.376;2023-03-16T02:22:45;3.80;;;2.83;;
13311;SDS011;34033;48.672;9.376;2023-03-16T02:25:14;3.10;;;2.77;;
13311;SDS011;34033;48.672;9.376;2023-03-16T02:30:32;5.50;;;3.10;;
13311;SDS011;34033;48.672;9.376;2023-03-16T02:32:58;3.77;;;2.73;;
13311;SDS011;34033;48.672;9.376;2023-03-16T02:35:24;3.13;;;2.60;;
13311;SDS011;34033;48.672;9.376;2023-03-16T02:37:49;3.17;;;2.87;;
13311;SDS011;34033;48.672;9.376;2023-03-16T02:40:27;3.10;;;2.80;;
13311;SDS011;34033;48.672;9.376;2023-03-16T02:42:55;3.00;;;2.70;;
13311;SDS011;34033;48.672;9.376;2023-03-16T02:46:10;3.03;;;2.53;;
13311;SDS011;34033;48.672;9.376;2023-03-16T02:48:24;4.07;;;2.80;;
13311;SDS011;34033;48.672;9.376;2023-03-16T02:50:56;2.77;;;2.57;;
13311;SDS011;34033;48.672;9.376;2023-03-16T02:53:21;3.60;;;2.73;;
13311;SDS011;34033;48.672;9.376;2023-03-16T02:55:47;6.33;;;2.47;;
13311;SDS011;34033;48.672;9.376;2023-03-16T02:58:13;3.23;;;2.80;;
13311;SDS011;34033;48.672;9.376;2023-03-16T03:00:39;2.80;;;2.60;;
13311;SDS011;34033;48.672;9.376;2023-03-16T03:03:04;3.27;;;2.70;;
13311;SDS011;34033;48.672;9.376;2023-03-16T03:05:32;3.63;;;2.90;;
13311;SDS011;34033;48.672;9.376;2023-03-16T03:07:57;4.60;;;3.40;;
13311;SDS011;34033;48.672;9.376;2023-03-16T03:10:22;2.80;;;2.50;;
13311;SDS011;34033;48.672;9.376;2023-03-16T03:12:48;2.87;;;2.67;;
13311;SDS011;34033;48.672;9.376;2023-03-16T03:15:14;3.30;;;3.00;;
13311;SDS011;34033;48.672;9.376;2023-03-16T03:17:40;3.57;;;2.90;;
13311;SDS011;34033;48.672;9.376;2023-03-16T03:20:07;3.10;;;2.77;;
13311;SDS011;34033;48.672;9.376;2023-03-16T03:22:40;4.03;;;3.03;;
13311;SDS011;34033;48.672;9.376;2023-03-16T03:25:05;7.10;;;3.23;;
13311;SDS011;34033;48.672;9.376;2023-03-16T03:27:31;3.83;;;2.80;;
13311;SDS011;34033;48.672;9.376;2023-03-16T03:29:57;3.20;;;2.90;;
13311;SDS011;34033;48.672;9.376;2023-03-16T03:32:22;4.80;;;3.07;;
13311;SDS011;34033;48.672;9.376;2023-03-16T03:34:48;5.30;;;2.97;;
13311;SDS011;34033;48.672;9.376;2023-03-16T03:37:13;4.10;;;2.90;;
13311;SDS011;34033;48.672;9.376;2023-03-16T03:39:38;3.30;;;3.00;;
13311;SDS011;34033;48.672;9.376;2023-03-16T03:42:04;3.73;;;2.63;;
13311;SDS011;34033;48.672;9.376;2023-03-16T03:44:30;3.70;;;2.83;;
13311;SDS011;34033;48.672;9.376;2023-03-16T03:46:58;3.50;;;3.03;;
13311;SDS011;34033;48.672;9.376;2023-03-16T03:49:24;3.57;;;2.90;;
13311;SDS011;34033;48.672;9.376;2023-03-16T03:51:49;3.40;;;2.93;;
13311;SDS011;34033;48.672;9.376;2023-03-16T03:54:15;4.67;;;3.33;;
13311;SDS011;34033;48.672;9.376;2023-03-16T03:56:40;4.10;;;3.27;;
13311;SDS011;34033;48.672;9.376;2023-03-16T03:59:06;3.63;;;3.27;;
13311;SDS011;34033;48.672;9.376;2023-03-16T04:01:31;3.33;;;3.00;;
13311;SDS011;34033;48.672;9.376;2023-03-16T04:03:56;3.90;;;3.37;;
13311;SDS011;34033;48.672;9.376;2023-03-16T04:06:22;3.47;;;2.93;;
13311;SDS011;34033;48.672;9.376;2023-03-16T04:08:47;3.30;;;2.90;;
13311;SDS011;34033;48.672;9.376;2023-03-16T04:11:13;3.60;;;3.10;;
13311;SDS011;34033;48.672;9.376;2023-03-16T04:13:38;3.60;;;3.20;;
13311;SDS011;34033;48.672;9.376;2023-03-16T04:16:04;4.80;;;2.97;;
13311;SDS011;34033;48.672;9.376;2023-03-16T04:18:30;3.70;;;3.00;;
13311;SDS011;34033;48.672;9.376;2023-03-16T04:21:05;3.20;;;2.90;;
13311;SDS011;34033;48.672;9.376;2023-03-16T04:23:32;4.47;;;3.20;;
13311;SDS011;34033;48.672;9.376;2023-03-16T04:25:58;4.67;;;2.90;;
13311;SDS011;34033;48.672;9.376;2023-03-16T04:28:24;3.00;;;2.70;;
13311;SDS011;34033;48.672;9.376;2023-03-16T04:30:53;4.53;;;3.13;;
13311;SDS011;34033;48.672;9.376;2023-03-16T04:33:22;3.37;;;3.07;;
13311;SDS011;34033;48.672;9.376;2023-03-16T04:35:47;5.50;;;2.87;;
13311;SDS011;34033;48.672;9.376;2023-03-16T04:38:13;3.90;;;3.10;;
13311;SDS011;34033;48.672;9.376;2023-03-16T04:40:38;2.93;;;2.73;;
13311;SDS011;34033;48.672;9.376;2023-03-16T04:43:04;4.17;;;3.00;;
13311;SDS011;34033;48.672;9.376;2023-03-16T04:45:29;3.10;;;2.80;;
13311;SDS011;34033;48.672;9.376;2023-03-16T04:47:56;3.63;;;2.90;;
13311;SDS011;34033;48.672;9.376;2023-03-16T04:50:21;4.47;;;2.97;;
13311;SDS011;34033;48.672;9.376;2023-03-16T04:52:47;3.93;;;3.07;;
13311;SDS011;34033;48.672;9.376;2023-03-16T04:55:12;2.80;;;2.60;;
13311;SDS011;34033;48.672;9.376;2023-03-16T04:57:37;3.33;;;3.03;;
13311;SDS011;34033;48.672;9.376;2023-03-16T05:00:03;3.43;;;2.77;;
13311;SDS011;34033;48.672;9.376;2023-03-16T05:02:47;2.80;;;2.60;;
13311;SDS011;34033;48.672;9.376;2023-03-16T05:05:14;3.07;;;2.77;;
13311;SDS011;34033;48.672;9.376;2023-03-16T05:07:40;3.10;;;2.47;;
13311;SDS011;34033;48.672;9.376;2023-03-16T05:10:07;3.90;;;2.97;;
13311;SDS011;34033;48.672;9.376;2023-03-16T05:12:34;3.70;;;2.80;;
13311;SDS011;34033;48.672;9.376;2023-03-16T05:15:00;3.07;;;2.80;;
13311;SDS011;34033;48.672;9.376;2023-03-16T05:17:25;5.50;;;3.20;;
13311;SDS011;34033;48.672;9.376;2023-03-16T05:19:51;3.17;;;2.87;;
13311;SDS011;34033;48.672;9.376;2023-03-16T05:22:16;3.50;;;3.20;;
13311;SDS011;34033;48.672;9.376;2023-03-16T05:24:42;5.17;;;3.37;;
13311;SDS011;34033;48.672;9.376;2023-03-16T05:27:07;3.90;;;3.33;;
13311;SDS011;34033;48.672;9.376;2023-03-16T05:29:32;3.50;;;3.20;;
13311;SDS011;34033;48.672;9.376;2023-03-16T05:31:58;4.37;;;3.47;;
13311;SDS011;34033;48.672;9.376;2023-03-16T05:34:24;4.13;;;3.70;;
13311;SDS011;34033;48.672;9.376;2023-03-16T05:36:49;4.13;;;3.50;;
13311;SDS011;34033;48.672;9.376;2023-03-16T05:39:14;4.83;;;3.80;;
13311;SDS011;34033;48.672;9.376;2023-03-16T05:41:40;5.53;;;3.73;;
13311;SDS011;34033;48.672;9.376;2023-03-16T05:44:05;5.37;;;3.90;;
13311;SDS011;34033;48.672;9.376;2023-03-16T05:46:31;6.13;;;4.67;;
13311;SDS011;34033;48.672;9.376;2023-03-16T05:48:57;4.57;;;3.90;;
13311;SDS011;34033;48.672;9.376;2023-03-16T05:51:22;4.60;;;4.03;;
13311;SDS011;34033;48.672;9.376;2023-03-16T05:53:50;5.03;;;4.37;;
13311;SDS011;34033;48.672;9.376;2023-03-16T05:56:16;5.40;;;4.30;;
13311;SDS011;34033;48.672;9.376;2023-03-16T05:58:42;6.07;;;4.33;;
13311;SDS011;34033;48.672;9.376;2023-03-16T06:01:07;6.53;;;4.20;;
13311;SDS011;34033;48.672;9.376;2023-03-16T06:03:34;4.23;;;3.40;;
13311;SDS011;34033;48.672;9.376;2023-03-16T06:06:00;4.53;;;3.67;;
13311;SDS011;34033;48.672;9.376;2023-03-16T06:08:26;4.40;;;4.00;;
13311;SDS011;34033;48.672;9.376;2023-03-16T06:10:51;5.87;;;3.80;;
13311;SDS011;34033;48.672;9.376;2023-03-16T06:13:17;5.50;;;4.20;;
13311;SDS011;34033;48.672;9.376;2023-03-16T06:15:42;5.77;;;4.30;;
13311;SDS011;34033;48.672;9.376;2023-03-16T06:18:08;5.73;;;4.13;;
13311;SDS011;34033;48.672;9.376;2023-03-16T06:20:33;5.27;;;3.87;;
13311;SDS011;34033;48.672;9.376;2023-03-16T06:22:59;4.23;;;3.83;;
13311;SDS011;34033;48.672;9.376;2023-03-16T06:25:24;5.27;;;4.10;;
13311;SDS011;34033;48.672;9.376;2023-03-16T06:27:50;4.43;;;3.83;;
13311;SDS011;34033;48.672;9.376;2023-03-16T06:30:15;5.20;;;4.13;;
13311;SDS011;34033;48.672;9.376;2023-03-16T06:32:41;4.97;;;4.03;;
13311;SDS011;34033;48.672;9.376;2023-03-16T06:35:07;6.70;;;3.90;;
13311;SDS011;34033;48.672;9.376;2023-03-16T06:37:33;6.37;;;3.93;;
13311;SDS011;34033;48.672;9.376;2023-03-16T06:39:59;5.07;;;3.90;;
13311;SDS011;34033;48.672;9.376;2023-03-16T06:42:25;6.90;;;4.70;;
13311;SDS011;34033;48.672;9.376;2023-03-16T06:44:50;4.63;;;3.67;;
13311;SDS011;34033;48.672;9.376;2023-03-16T06:47:16;5.63;;;3.90;;
13311;SDS011;34033;48.672;9.376;2023-03-16T06:49:42;5.13;;;3.93;;
13311;SDS011;34033;48.672;9.376;2023-03-16T06:52:07;6.13;;;4.20;;
13311;SDS011;34033;48.672;9.376;2023-03-16T06:54:34;4.37;;;3.73;;
13311;SDS011;34033;48.672;9.376;2023-03-16T06:57:01;5.40;;;3.63;;
13311;SDS011;34033;48.672;9.376;2023-03-16T06:59:27;8.47;;;4.33;;
13311;SDS011;34033;48.672;9.376;2023-03-16T07:01:53;5.17;;;4.23;;
13311;SDS011;34033;48.672;9.376;2023-03-16T07:04:18;6.63;;;3.97;;
13311;SDS011;34033;48.672;9.376;2023-03-16T07:06:44;7.17;;;4.40;;
13311;SDS011;34033;48.672;9.376;2023-03-16T07:09:09;6.27;;;4.63;;
13311;SDS011;34033;48.672;9.376;2023-03-16T07:11:36;5.27;;;4.23;;
13311;SDS011;34033;48.672;9.376;2023-03-16T07:14:02;6.60;;;4.63;;
13311;SDS011;34033;48.672;9.376;2023-03-16T07:16:28;5.20;;;4.57;;
13311;SDS011;34033;48.672;9.376;2023-03-16T07:18:53;6.13;;;4.73;;
13311;SDS011;34033;48.672;9.376;2023-03-16T07:21:19;6.37;;;4.20;;
13311;SDS011;34033;48.672;9.376;2023-03-16T07:23:44;5.27;;;4.67;;
13311;SDS011;34033;48.672;9.376;2023-03-16T07:26:10;5.40;;;4.53;;
13311;SDS011;34033;48.672;9.376;2023-03-16T07:28:36;5.87;;;4.60;;
13311;SDS011;34033;48.672;9.376;2023-03-16T07:31:03;6.10;;;5.10;;
13311;SDS011;34033;48.672;9.376;2023-03-16T07:33:30;8.63;;;4.83;;
13311;SDS011;34033;48.672;9.376;2023-03-16T07:35:58;5.40;;;4.27;;
13311;SDS011;34033;48.672;9.376;2023-03-16T07:38:24;5.00;;;4.50;;
13311;SDS011;34033;48.672;9.376;2023-03-16T07:40:50;5.60;;;4.90;;
13311;SDS011;34033;48.672;9.376;2023-03-16T07:43:18;6.33;;;5.07;;
13311;SDS011;34033;48.672;9.376;2023-03-16T07:45:50;7.70;;;4.90;;
13311;SDS011;34033;48.672;9.376;2023-03-16T07:48:16;6.97;;;4.70;;
13311;SDS011;34033;48.672;9.376;2023-03-16T07:50:42;5.73;;;4.80;;
13311;SDS011;34033;48.672;9.376;2023-03-16T07:53:08;6.20;;;4.87;;
13311;SDS011;34033;48.672;9.376;2023-03-16T07:55:34;8.23;;;4.90;;
13311;SDS011;34033;48.672;9.376;2023-03-16T07:58:03;5.50;;;4.70;;
13311;SDS011;34033;48.672;9.376;2023-03-16T08:00:30;8.27;;;5.20;;
13311;SDS011;34033;48.672;9.376;2023-03-16T08:02:56;6.53;;;4.63;;
13311;SDS011;34033;48.672;9.376;2023-03-16T08:05:21;5.73;;;4.73;;
13311;SDS011;34033;48.672;9.376;2023-03-16T08:07:47;6.10;;;5.10;;
13311;SDS011;34033;48.672;9.376;2023-03-16T08:10:12;6.67;;;5.07;;
13311;SDS011;34033;48.672;9.376;2023-03-16T08:12:37;7.20;;;4.83;;
13311;SDS011;34033;48.672;9.376;2023-03-16T08:15:03;6.10;;;4.93;;
13311;SDS011;34033;48.672;9.376;2023-03-16T08:17:29;5.53;;;4.93;;
13311;SDS011;34033;48.672;9.376;2023-03-16T08:19:55;6.87;;;5.23;;
13311;SDS011;34033;48.672;9.376;2023-03-16T08:22:21;6.83;;;5.30;;
13311;SDS011;34033;48.672;9.376;2023-03-16T08:24:46;5.27;;;3.90;;
13311;SDS011;34033;48.672;9.376;2023-03-16T08:27:12;4.33;;;3.77;;
13311;SDS011;34033;48.672;9.376;2023-03-16T08:29:40;3.80;;;3.47;;
13311;SDS011;34033;48.672;9.376;2023-03-16T08:32:05;4.43;;;3.40;;
13311;SDS011;34033;48.672;9.376;2023-03-16T08:34:31;5.90;;;3.83;;
13311;SDS011;34033;48.672;9.376;2023-03-16T08:36:56;6.03;;;3.90;;
13311;SDS011;34033;48.672;9.376;2023-03-16T08:39:21;5.67;;;4.07;;
13311;SDS011;34033;48.672;9.376;2023-03-16T08:41:47;5.10;;;3.57;;
13311;SDS011;34033;48.672;9.376;2023-03-16T08:44:12;4.47;;;3.70;;
13311;SDS011;34033;48.672;9.376;2023-03-16T08:46:38;4.33;;;3.93;;
13311;SDS011;34033;48.672;9.376;2023-03-16T08:49:04;4.00;;;3.60;;
13311;SDS011;34033;48.672;9.376;2023-03-16T08:51:30;3.57;;;3.27;;
13311;SDS011;34033;48.672;9.376;2023-03-16T08:53:56;4.33;;;3.33;;
13311;SDS011;34033;48.672;9.376;2023-03-16T08:56:22;4.50;;;3.77;;
13311;SDS011;34033;48.672;9.376;2023-03-16T08:58:48;4.17;;;3.40;;
13311;SDS011;34033;48.672;9.376;2023-03-16T09:01:13;3.70;;;3.40;;
13311;SDS011;34033;48.672;9.376;2023-03-16T09:03:41;3.60;;;3.13;;
13311;SDS011;34033;48.672;9.376;2023-03-16T09:06:11;3.30;;;3.03;;
13311;SDS011;34033;48.672;9.376;2023-03-16T09:08:37;3.47;;;3.17;;
13311;SDS011;34033;48.672;9.376;2023-03-16T09:11:04;4.33;;;3.27;;
13311;SDS011;34033;48.672;9.376;2023-03-16T09:13:32;3.23;;;2.93;;
13311;SDS011;34033;48.672;9.376;2023-03-16T09:15:59;3.70;;;3.00;;
13311;SDS011;34033;48.672;9.376;2023-03-16T09:18:24;2.77;;;2.43;;
13311;SDS011;34033;48.672;9.376;2023-03-16T09:21:00;4.23;;;2.60;;
13311;SDS011;34033;48.672;9.376;2023-03-16T09:23:28;2.80;;;2.57;;
13311;SDS011;34033;48.672;9.376;2023-03-16T09:25:58;2.40;;;2.20;;
13311;SDS011;34033;48.672;9.376;2023-03-16T09:28:25;2.53;;;2.30;;
13311;SDS011;34033;48.672;9.376;2023-03-16T09:30:54;2.27;;;2.10;;
13311;SDS011;34033;48.672;9.376;2023-03-16T09:33:21;2.33;;;2.13;;
13311;SDS011;34033;48.672;9.376;2023-03-16T09:35:48;3.10;;;2.00;;
13311;SDS011;34033;48.672;9.376;2023-03-16T09:38:14;2.23;;;2.03;;
13311;SDS011;34033;48.672;9.376;2023-03-16T09:40:40;3.90;;;2.00;;
13311;SDS011;34033;48.672;9.376;2023-03-16T09:43:17;2.40;;;2.03;;
13311;SDS011;34033;48.672;9.376;2023-03-16T09:46:10;1.60;;;1.50;;
13311;SDS011;34033;48.672;9.376;2023-03-16T09:48:53;1.70;;;1.60;;
13311;SDS011;34033;48.672;9.376;2023-03-16T09:54:12;2.07;;;1.63;;
13311;SDS011;34033;48.672;9.376;2023-03-16T09:56:56;1.60;;;1.50;;
13311;SDS011;34033;48.672;9.376;2023-03-16T09:59:23;1.80;;;1.63;;
13311;SDS011;34033;48.672;9.376;2023-03-16T10:04:34;1.77;;;1.57;;
13311;SDS011;34033;48.672;9.376;2023-03-16T10:09:38;1.50;;;1.40;;
13311;SDS011;34033;48.672;9.376;2023-03-16T10:12:09;1.20;;;1.20;;
13311;SDS011;34033;48.672;9.376;2023-03-16T10:17:14;2.17;;;1.50;;
13311;SDS011;34033;48.672;9.376;2023-03-16T10:22:18;1.43;;;1.33;;
13311;SDS011;34033;48.672;9.376;2023-03-16T10:27:34;1.47;;;1.37;;
13311;SDS011;34033;48.672;9.376;2023-03-16T10:30:03;1.43;;;1.33;;
13311;SDS011;34033;48.672;9.376;2023-03-16T10:32:49;1.40;;;1.30;;
13311;SDS011;34033;48.672;9.376;2023-03-16T10:38:07;1.50;;;1.40;;
13311;SDS011;34033;48.672;9.376;2023-03-16T10:40:37;1.30;;;1.20;;
13311;SDS011;34033;48.672;9.376;2023-03-16T10:43:04;1.13;;;1.10;;
13311;SDS011;34033;48.672;9.376;2023-03-16T10:45:33;1.33;;;1.23;;
13311;SDS011;34033;48.672;9.376;2023-03-16T10:48:13;1.53;;;1.30;;
13311;SDS011;34033;48.672;9.376;2023-03-16T10:50:43;2.57;;;1.43;;
13311;SDS011;34033;48.672;9.376;2023-03-16T10:53:19;2.00;;;1.40;;
13311;SDS011;34033;48.672;9.376;2023-03-16T10:55:59;2.20;;;1.40;;
13311;SDS011;34033;48.672;9.376;2023-03-16T10:58:29;1.73;;;1.63;;
13311;SDS011;34033;48.672;9.376;2023-03-16T11:00:57;1.97;;;1.20;;
13311;SDS011;34033;48.672;9.376;2023-03-16T11:03:31;1.23;;;1.13;;
13311;SDS011;34033;48.672;9.376;2023-03-16T11:06:04;1.90;;;1.40;;
13311;SDS011;34033;48.672;9.376;2023-03-16T11:08:33;1.30;;;1.30;;
13311;SDS011;34033;48.672;9.376;2023-03-16T11:11:12;1.47;;;1.37;;
13311;SDS011;34033;48.672;9.376;2023-03-16T11:13:45;1.63;;;1.43;;
13311;SDS011;34033;48.672;9.376;2023-03-16T11:18:43;1.37;;;1.30;;
13311;SDS011;34033;48.672;9.376;2023-03-16T11:21:12;1.70;;;1.60;;
13311;SDS011;34033;48.672;9.376;2023-03-16T11:23:45;1.57;;;1.37;;
13311;SDS011;34033;48.672;9.376;2023-03-16T11:26:20;1.50;;;1.40;;
13311;SDS011;34033;48.672;9.376;2023-03-16T11:28:56;1.60;;;1.50;;
13311;SDS011;34033;48.672;9.376;2023-03-16T11:31:32;3.67;;;1.60;;
13311;SDS011;34033;48.672;9.376;2023-03-16T11:34:16;1.77;;;1.67;;
13311;SDS011;34033;48.672;9.376;2023-03-16T11:45:02;1.97;;;1.80;;
13311;SDS011;34033;48.672;9.376;2023-03-16T11:53:18;2.20;;;1.87;;
13311;SDS011;34033;48.672;9.376;2023-03-16T12:01:15;4.40;;;2.00;;
13311;SDS011;34033;48.672;9.376;2023-03-16T12:09:28;4.93;;;1.70;;
13311;SDS011;34033;48.672;9.376;2023-03-16T12:15:20;1.90;;;1.47;;
13311;SDS011;34033;48.672;9.376;2023-03-16T12:17:54;2.27;;;1.83;;
13311;SDS011;34033;48.672;9.376;2023-03-16T12:20:25;3.00;;;1.67;;
13311;SDS011;34033;48.672;9.376;2023-03-16T12:23:01;2.07;;;1.60;;
13311;SDS011;34033;48.672;9.376;2023-03-16T12:25:32;1.93;;;1.77;;
13311;SDS011;34033;48.672;9.376;2023-03-16T12:28:02;2.13;;;1.70;;
13311;SDS011;34033;48.672;9.376;2023-03-16T12:30:37;1.63;;;1.50;;
13311;SDS011;34033;48.672;9.376;2023-03-16T12:34:01;2.57;;;1.60;;
13311;SDS011;34033;48.672;9.376;2023-03-16T12:46:37;1.27;;;1.27;;
13311;SDS011;34033;48.672;9.376;2023-03-16T12:49:09;2.90;;;1.50;;
13311;SDS011;34033;48.672;9.376;2023-03-16T12:51:39;1.43;;;1.33;;
13311;SDS011;34033;48.672;9.376;2023-03-16T12:54:22;1.40;;;1.30;;
13311;SDS011;34033;48.672;9.376;2023-03-16T12:56:49;1.57;;;1.33;;
13311;SDS011;34033;48.672;9.376;2023-03-16T12:59:21;2.90;;;1.90;;
13311;SDS011;34033;48.672;9.376;2023-03-16T13:01:49;1.90;;;1.80;;
13311;SDS011;34033;48.672;9.376;2023-03-16T13:04:21;2.00;;;1.90;;
13311;SDS011;34033;48.672;9.376;2023-03-16T13:07:05;2.07;;;1.70;;
13311;SDS011;34033;48.672;9.376;2023-03-16T13:09:46;1.70;;;1.60;;
13311;SDS011;34033;48.672;9.376;2023-03-16T13:12:23;1.47;;;1.37;;
13311;SDS011;34033;48.672;9.376;2023-03-16T13:14:50;1.60;;;1.50;;
13311;SDS011;34033;48.672;9.376;2023-03-16T13:19:44;1.80;;;1.70;;
13311;SDS011;34033;48.672;9.376;2023-03-16T13:22:27;1.77;;;1.67;;
13311;SDS011;34033;48.672;9.376;2023-03-16T13:27:27;2.90;;;1.90;;
13311;SDS011;34033;48.672;9.376;2023-03-16T13:29:58;2.10;;;1.80;;
13311;SDS011;34033;48.672;9.376;2023-03-16T13:32:30;2.50;;;1.80;;
13311;SDS011;34033;48.672;9.376;2023-03-16T13:34:58;2.00;;;1.80;;
13311;SDS011;34033;48.672;9.376;2023-03-16T13:37:27;2.50;;;2.10;;
13311;SDS011;34033;48.672;9.376;2023-03-16T13:39:54;1.93;;;1.67;;
13311;SDS011;34033;48.672;9.376;2023-03-16T13:42:25;1.80;;;1.70;;
13311;SDS011;34033;48.672;9.376;2023-03-16T13:44:56;1.90;;;1.77;;
13311;SDS011;34033;48.672;9.376;2023-03-16T13:47:24;2.60;;;2.40;;
13311;SDS011;34033;48.672;9.376;2023-03-16T13:49:54;2.50;;;1.90;;
13311;SDS011;34033;48.672;9.376;2023-03-16T13:54:55;3.67;;;2.00;;
13311;SDS011;34033;48.672;9.376;2023-03-16T13:57:23;2.90;;;2.10;;
13311;SDS011;34033;48.672;9.376;2023-03-16T13:59:51;2.10;;;2.00;;
13311;SDS011;34033;48.672;9.376;2023-03-16T14:02:25;1.70;;;1.60;;
13311;SDS011;34033;48.672;9.376;2023-03-16T14:04:50;1.40;;;1.30;;
13311;SDS011;34033;48.672;9.376;2023-03-16T14:07:17;1.40;;;1.30;;
13311;SDS011;34033;48.672;9.376;2023-03-16T14:09:44;1.50;;;1.40;;
13311;SDS011;34033;48.672;9.376;2023-03-16T14:12:14;1.10;;;1.03;;
13311;SDS011;34033;48.672;9.376;2023-03-16T14:14:44;2.97;;;1.30;;
13311;SDS011;34033;48.672;9.376;2023-03-16T14:17:17;1.50;;;1.40;;
13311;SDS011;34033;48.672;9.376;2023-03-16T14:22:16;1.70;;;1.30;;
13311;SDS011;34033;48.672;9.376;2023-03-16T14:24:55;1.57;;;1.30;;
13311;SDS011;34033;48.672;9.376;2023-03-16T14:30:16;2.10;;;1.30;;
13311;SDS011;34033;48.672;9.376;2023-03-16T14:33:04;1.93;;;1.20;;
13311;SDS011;34033;48.672;9.376;2023-03-16T14:35:44;1.10;;;1.10;;
13311;SDS011;34033;48.672;9.376;2023-03-16T14:38:29;1.13;;;1.13;;
13311;SDS011;34033;48.672;9.376;2023-03-16T14:40:57;1.47;;;1.37;;
13311;SDS011;34033;48.672;9.376;2023-03-16T14:43:29;1.10;;;1.00;;
13311;SDS011;34033;48.672;9.376;2023-03-16T14:45:57;0.90;;;0.90;;
13311;SDS011;34033;48.672;9.376;2023-03-16T14:48:24;2.40;;;1.27;;
13311;SDS011;34033;48.672;9.376;2023-03-16T14:50:52;2.03;;;1.40;;
13311;SDS011;34033;48.672;9.376;2023-03-16T14:53:19;1.70;;;1.60;;
13311;SDS011;34033;48.672;9.376;2023-03-16T14:55:45;1.50;;;1.40;;
13311;SDS011;34033;48.672;9.376;2023-03-16T14:58:11;1.43;;;1.33;;
13311;SDS011;34033;48.672;9.376;2023-03-16T15:00:37;1.97;;;1.60;;
13311;SDS011;34033;48.672;9.376;2023-03-16T15:05:31;1.60;;;1.50;;
13311;SDS011;34033;48.672;9.376;2023-03-16T15:07:59;1.93;;;1.50;;
13311;SDS011;34033;48.672;9.376;2023-03-16T15:10:27;1.20;;;1.20;;
13311;SDS011;34033;48.672;9.376;2023-03-16T15:12:54;1.50;;;1.40;;
13311;SDS011;34033;48.672;9.376;2023-03-16T15:15:28;1.37;;;1.30;;
13311;SDS011;34033;48.672;9.376;2023-03-16T15:17:54;2.23;;;1.50;;
13311;SDS011;34033;48.672;9.376;2023-03-16T15:20:21;1.77;;;1.67;;
13311;SDS011;34033;48.672;9.376;2023-03-16T15:22:49;1.60;;;1.50;;
13311;SDS011;34033;48.672;9.376;2023-03-16T15:27:45;1.40;;;1.30;;
13311;SDS011;34033;48.672;9.376;2023-03-16T15:30:14;1.40;;;1.30;;
13311;SDS011;34033;48.672;9.376;2023-03-16T15:32:47;1.60;;;1.50;;
13311;SDS011;34033;48.672;9.376;2023-03-16T15:35:13;1.67;;;1.50;;
13311;SDS011;34033;48.672;9.376;2023-03-16T15:37:38;1.23;;;1.13;;
13311;SDS011;34033;48.672;9.376;2023-03-16T15:40:22;1.43;;;1.33;;
13311;SDS011;34033;48.672;9.376;2023-03-16T15:42:50;1.40;;;1.27;;
13311;SDS011;34033;48.672;9.376;2023-03-16T15:45:16;2.80;;;1.47;;
13311;SDS011;34033;48.672;9.376;2023-03-16T15:47:45;1.60;;;1.50;;
13311;SDS011;34033;48.672;9.376;2023-03-16T15:50:13;1.40;;;1.30;;
13311;SDS011;34033;48.672;9.376;2023-03-16T15:52:40;1.30;;;1.20;;
13311;SDS011;34033;48.672;9.376;2023-03-16T15:55:21;1.30;;;1.20;;
13311;SDS011;34033;48.672;9.376;2023-03-16T15:57:48;1.60;;;1.30;;
13311;SDS011;34033;48.672;9.376;2023-03-16T16:02:59;1.23;;;1.23;;
13311;SDS011;34033;48.672;9.376;2023-03-16T16:05:26;1.40;;;1.30;;
13311;SDS011;34033;48.672;9.376;2023-03-16T16:07:52;1.40;;;1.30;;
13311;SDS011;34033;48.672;9.376;2023-03-16T16:10:19;1.30;;;1.20;;
13311;SDS011;34033;48.672;9.376;2023-03-16T16:12:45;1.53;;;1.30;;
13311;SDS011;34033;48.672;9.376;2023-03-16T16:17:44;1.83;;;1.63;;
13311;SDS011;34033;48.672;9.376;2023-03-16T16:20:31;1.47;;;1.43;;
13311;SDS011;34033;48.672;9.376;2023-03-16T16:22:56;1.67;;;1.57;;
13311;SDS011;34033;48.672;9.376;2023-03-16T16:25:36;1.60;;;1.50;;
13311;SDS011;34033;48.672;9.376;2023-03-16T16:28:10;1.57;;;1.30;;
13311;SDS011;34033;48.672;9.376;2023-03-16T16:30:39;4.17;;;1.40;;